Webcam Flughafen St.Gallen-Altenrhein

Live-Bilder und Zeitraffer LSZR / ACH.

 

Live aus Altenrhein
LIVE
LSZR 010020Z AUTO 30016KT 3300 +RA FEW003 16/16 Q1010
Zeitraffer heute
2021-08-01 00:14:45
LSZR 312150Z AUTO VRB01KT 9999 -RA FEW049 OVC060 17/17 Q1010